sensor_id;sensor_type;location;lat;lon;timestamp;pressure;altitude;pressure_sealevel;temperature;humidity
68456;BME280;55437;55.046;38.838;2023-02-17T00:01:23;100756.97;;;-2.92;59.43
68456;BME280;55437;55.046;38.838;2023-02-17T00:03:49;100757.34;;;-2.81;59.37
68456;BME280;55437;55.046;38.838;2023-02-17T00:06:17;100754.78;;;-2.82;58.82
68456;BME280;55437;55.046;38.838;2023-02-17T00:08:43;100758.84;;;-2.86;59.15
68456;BME280;55437;55.046;38.838;2023-02-17T00:11:10;100758.41;;;-2.74;59.01
68456;BME280;55437;55.046;38.838;2023-02-17T00:13:36;100759.69;;;-2.85;59.35
68456;BME280;55437;55.046;38.838;2023-02-17T00:16:07;100759.06;;;-2.80;58.70
68456;BME280;55437;55.046;38.838;2023-02-17T00:18:33;100759.81;;;-2.82;59.10
68456;BME280;55437;55.046;38.838;2023-02-17T00:21:00;100756.19;;;-2.89;59.16
68456;BME280;55437;55.046;38.838;2023-02-17T00:23:46;100760.69;;;-3.04;59.58
68456;BME280;55437;55.046;38.838;2023-02-17T00:26:15;100757.53;;;-2.99;59.37
68456;BME280;55437;55.046;38.838;2023-02-17T00:28:42;100757.03;;;-2.90;59.18
68456;BME280;55437;55.046;38.838;2023-02-17T00:31:27;100755.19;;;-2.94;58.74
68456;BME280;55437;55.046;38.838;2023-02-17T00:33:54;100752.38;;;-3.02;59.32
68456;BME280;55437;55.046;38.838;2023-02-17T00:36:20;100751.56;;;-3.02;59.30
68456;BME280;55437;55.046;38.838;2023-02-17T00:38:47;100751.59;;;-3.01;59.26
68456;BME280;55437;55.046;38.838;2023-02-17T00:41:14;100749.66;;;-3.08;59.79
68456;BME280;55437;55.046;38.838;2023-02-17T00:43:40;100747.28;;;-3.26;59.55
68456;BME280;55437;55.046;38.838;2023-02-17T00:46:06;100746.16;;;-3.34;60.08
68456;BME280;55437;55.046;38.838;2023-02-17T00:48:33;100737.09;;;-3.30;59.79
68456;BME280;55437;55.046;38.838;2023-02-17T00:51:00;100746.34;;;-3.29;60.01
68456;BME280;55437;55.046;38.838;2023-02-17T00:53:26;100737.69;;;-3.15;59.63
68456;BME280;55437;55.046;38.838;2023-02-17T00:55:51;100731.34;;;-3.05;59.18
68456;BME280;55437;55.046;38.838;2023-02-17T00:58:17;100744.69;;;-3.06;59.53
68456;BME280;55437;55.046;38.838;2023-02-17T01:00:43;100750.91;;;-2.97;59.40
68456;BME280;55437;55.046;38.838;2023-02-17T01:03:09;100746.38;;;-2.83;59.10
68456;BME280;55437;55.046;38.838;2023-02-17T01:05:43;100741.06;;;-2.68;58.66
68456;BME280;55437;55.046;38.838;2023-02-17T01:08:09;100742.50;;;-2.51;58.65
68456;BME280;55437;55.046;38.838;2023-02-17T01:10:39;100731.91;;;-2.42;58.10
68456;BME280;55437;55.046;38.838;2023-02-17T01:13:07;100738.81;;;-2.37;57.99
68456;BME280;55437;55.046;38.838;2023-02-17T01:15:46;100734.56;;;-2.38;57.74
68456;BME280;55437;55.046;38.838;2023-02-17T01:18:14;100746.56;;;-2.31;57.87
68456;BME280;55437;55.046;38.838;2023-02-17T01:20:42;100737.38;;;-2.30;57.74
68456;BME280;55437;55.046;38.838;2023-02-17T01:23:09;100738.41;;;-2.24;57.93
68456;BME280;55437;55.046;38.838;2023-02-17T01:25:36;100732.41;;;-2.27;57.80
68456;BME280;55437;55.046;38.838;2023-02-17T01:28:02;100737.41;;;-2.53;58.34
68456;BME280;55437;55.046;38.838;2023-02-17T01:30:29;100735.59;;;-2.57;58.35
68456;BME280;55437;55.046;38.838;2023-02-17T01:32:55;100733.41;;;-2.71;59.04
68456;BME280;55437;55.046;38.838;2023-02-17T01:35:22;100728.47;;;-2.92;59.19
68456;BME280;55437;55.046;38.838;2023-02-17T01:37:47;100730.94;;;-2.94;59.38
68456;BME280;55437;55.046;38.838;2023-02-17T01:40:15;100726.25;;;-3.07;59.71
68456;BME280;55437;55.046;38.838;2023-02-17T01:42:42;100728.13;;;-3.01;59.19
68456;BME280;55437;55.046;38.838;2023-02-17T01:47:48;100729.78;;;-2.79;58.87
68456;BME280;55437;55.046;38.838;2023-02-17T01:50:17;100726.66;;;-2.72;58.69
68456;BME280;55437;55.046;38.838;2023-02-17T01:52:45;100729.56;;;-2.62;58.84
68456;BME280;55437;55.046;38.838;2023-02-17T01:55:15;100720.97;;;-2.68;58.39
68456;BME280;55437;55.046;38.838;2023-02-17T01:57:43;100718.47;;;-2.91;58.95
68456;BME280;55437;55.046;38.838;2023-02-17T02:00:11;100730.00;;;-2.96;59.17
68456;BME280;55437;55.046;38.838;2023-02-17T02:03:05;100726.63;;;-2.96;59.35
68456;BME280;55437;55.046;38.838;2023-02-17T02:05:33;100728.97;;;-3.01;59.79
68456;BME280;55437;55.046;38.838;2023-02-17T02:07:59;100732.06;;;-3.08;59.57
68456;BME280;55437;55.046;38.838;2023-02-17T02:10:25;100729.16;;;-3.18;59.61
68456;BME280;55437;55.046;38.838;2023-02-17T02:12:51;100724.47;;;-3.32;60.11
68456;BME280;55437;55.046;38.838;2023-02-17T02:15:20;100725.84;;;-3.40;60.40
68456;BME280;55437;55.046;38.838;2023-02-17T02:33:53;100733.44;;;-3.16;59.85
68456;BME280;55437;55.046;38.838;2023-02-17T02:36:27;100736.91;;;-3.35;60.54
68456;BME280;55437;55.046;38.838;2023-02-17T02:39:09;100737.69;;;-3.36;60.39
68456;BME280;55437;55.046;38.838;2023-02-17T02:41:58;100744.75;;;-3.27;60.17
68456;BME280;55437;55.046;38.838;2023-02-17T02:44:25;100750.25;;;-3.15;60.07
68456;BME280;55437;55.046;38.838;2023-02-17T02:46:59;100743.56;;;-3.14;59.99
68456;BME280;55437;55.046;38.838;2023-02-17T02:49:27;100742.91;;;-3.09;59.74
68456;BME280;55437;55.046;38.838;2023-02-17T02:54:56;100742.63;;;-3.16;60.36
68456;BME280;55437;55.046;38.838;2023-02-17T02:57:48;100747.47;;;-2.99;59.72
68456;BME280;55437;55.046;38.838;2023-02-17T03:05:35;100750.50;;;-2.85;59.43
68456;BME280;55437;55.046;38.838;2023-02-17T03:08:13;100751.75;;;-2.74;59.19
68456;BME280;55437;55.046;38.838;2023-02-17T03:10:47;100752.13;;;-2.63;59.45
68456;BME280;55437;55.046;38.838;2023-02-17T03:13:14;100744.09;;;-2.53;58.89
68456;BME280;55437;55.046;38.838;2023-02-17T03:15:41;100746.22;;;-2.40;58.69
68456;BME280;55437;55.046;38.838;2023-02-17T03:18:07;100739.06;;;-2.29;58.77
68456;BME280;55437;55.046;38.838;2023-02-17T03:20:36;100746.81;;;-2.23;58.28
68456;BME280;55437;55.046;38.838;2023-02-17T03:23:03;100744.50;;;-2.17;58.49
68456;BME280;55437;55.046;38.838;2023-02-17T03:25:30;100745.47;;;-2.13;58.01
68456;BME280;55437;55.046;38.838;2023-02-17T03:27:56;100746.25;;;-2.14;58.15
68456;BME280;55437;55.046;38.838;2023-02-17T03:30:24;100742.25;;;-2.09;57.84
68456;BME280;55437;55.046;38.838;2023-02-17T03:32:50;100731.44;;;-2.07;58.17
68456;BME280;55437;55.046;38.838;2023-02-17T03:35:17;100740.44;;;-2.13;58.25
68456;BME280;55437;55.046;38.838;2023-02-17T03:37:43;100741.19;;;-2.16;58.45
68456;BME280;55437;55.046;38.838;2023-02-17T03:40:09;100746.06;;;-2.21;58.37
68456;BME280;55437;55.046;38.838;2023-02-17T03:42:35;100742.94;;;-2.13;58.42
68456;BME280;55437;55.046;38.838;2023-02-17T03:45:01;100748.19;;;-2.07;58.24
68456;BME280;55437;55.046;38.838;2023-02-17T03:47:29;100749.81;;;-2.09;58.20
68456;BME280;55437;55.046;38.838;2023-02-17T03:49:54;100748.69;;;-2.17;58.28
68456;BME280;55437;55.046;38.838;2023-02-17T03:52:21;100753.00;;;-2.13;58.57
68456;BME280;55437;55.046;38.838;2023-02-17T03:54:47;100749.84;;;-2.08;58.25
68456;BME280;55437;55.046;38.838;2023-02-17T03:57:13;100751.97;;;-2.20;58.53
68456;BME280;55437;55.046;38.838;2023-02-17T03:59:38;100755.47;;;-2.15;58.61
68456;BME280;55437;55.046;38.838;2023-02-17T04:02:04;100755.53;;;-2.13;58.91
68456;BME280;55437;55.046;38.838;2023-02-17T04:04:30;100761.69;;;-2.05;58.72
68456;BME280;55437;55.046;38.838;2023-02-17T04:06:56;100760.84;;;-2.04;58.33
68456;BME280;55437;55.046;38.838;2023-02-17T04:09:21;100763.06;;;-2.13;58.66
68456;BME280;55437;55.046;38.838;2023-02-17T04:11:47;100769.66;;;-2.17;58.37
68456;BME280;55437;55.046;38.838;2023-02-17T04:14:13;100772.38;;;-2.11;58.42
68456;BME280;55437;55.046;38.838;2023-02-17T04:16:39;100772.28;;;-2.14;58.81
68456;BME280;55437;55.046;38.838;2023-02-17T04:19:08;100775.59;;;-2.15;58.33
68456;BME280;55437;55.046;38.838;2023-02-17T04:21:33;100771.75;;;-2.05;58.76
68456;BME280;55437;55.046;38.838;2023-02-17T04:24:00;100771.88;;;-2.01;58.36
68456;BME280;55437;55.046;38.838;2023-02-17T04:26:27;100769.81;;;-2.12;58.77
68456;BME280;55437;55.046;38.838;2023-02-17T04:28:53;100763.97;;;-2.11;58.59
68456;BME280;55437;55.046;38.838;2023-02-17T04:31:19;100766.13;;;-2.22;58.86
68456;BME280;55437;55.046;38.838;2023-02-17T04:33:45;100771.06;;;-2.25;58.63
68456;BME280;55437;55.046;38.838;2023-02-17T04:36:11;100767.97;;;-2.18;59.03
68456;BME280;55437;55.046;38.838;2023-02-17T04:38:37;100757.97;;;-2.15;58.75
68456;BME280;55437;55.046;38.838;2023-02-17T04:41:05;100769.25;;;-2.05;58.72
68456;BME280;55437;55.046;38.838;2023-02-17T04:43:31;100769.25;;;-2.05;58.84
68456;BME280;55437;55.046;38.838;2023-02-17T04:45:57;100763.44;;;-2.03;58.89
68456;BME280;55437;55.046;38.838;2023-02-17T04:48:24;100772.00;;;-1.98;58.66
68456;BME280;55437;55.046;38.838;2023-02-17T04:50:50;100765.88;;;-2.04;59.17
68456;BME280;55437;55.046;38.838;2023-02-17T04:53:15;100769.75;;;-2.14;58.71
68456;BME280;55437;55.046;38.838;2023-02-17T04:55:41;100770.25;;;-2.24;59.19
68456;BME280;55437;55.046;38.838;2023-02-17T04:58:08;100771.56;;;-2.35;59.21
68456;BME280;55437;55.046;38.838;2023-02-17T05:00:35;100774.63;;;-2.44;59.57
68456;BME280;55437;55.046;38.838;2023-02-17T05:03:01;100771.72;;;-2.55;59.39
68456;BME280;55437;55.046;38.838;2023-02-17T05:05:27;100769.88;;;-2.59;60.07
68456;BME280;55437;55.046;38.838;2023-02-17T05:07:53;100780.25;;;-2.49;59.80
68456;BME280;55437;55.046;38.838;2023-02-17T05:10:20;100778.97;;;-2.62;59.96
68456;BME280;55437;55.046;38.838;2023-02-17T05:12:45;100783.31;;;-2.58;59.85
68456;BME280;55437;55.046;38.838;2023-02-17T05:15:12;100779.34;;;-2.51;59.68
68456;BME280;55437;55.046;38.838;2023-02-17T05:17:38;100777.31;;;-2.38;59.37
68456;BME280;55437;55.046;38.838;2023-02-17T05:20:04;100778.47;;;-2.30;59.27
68456;BME280;55437;55.046;38.838;2023-02-17T05:22:33;100783.88;;;-2.41;59.23
68456;BME280;55437;55.046;38.838;2023-02-17T05:24:59;100773.75;;;-2.44;59.73
68456;BME280;55437;55.046;38.838;2023-02-17T05:27:24;100781.56;;;-2.37;59.89
68456;BME280;55437;55.046;38.838;2023-02-17T05:29:51;100771.88;;;-2.26;59.28
68456;BME280;55437;55.046;38.838;2023-02-17T05:32:17;100781.78;;;-2.31;59.41
68456;BME280;55437;55.046;38.838;2023-02-17T05:34:43;100779.53;;;-2.23;59.65
68456;BME280;55437;55.046;38.838;2023-02-17T05:37:09;100780.78;;;-2.10;59.34
68456;BME280;55437;55.046;38.838;2023-02-17T05:39:35;100780.63;;;-2.15;59.45
68456;BME280;55437;55.046;38.838;2023-02-17T05:42:03;100785.81;;;-2.10;59.43
68456;BME280;55437;55.046;38.838;2023-02-17T05:44:29;100777.09;;;-1.96;59.00
68456;BME280;55437;55.046;38.838;2023-02-17T05:46:55;100781.31;;;-1.95;59.08
68456;BME280;55437;55.046;38.838;2023-02-17T05:49:21;100787.44;;;-1.87;58.79
68456;BME280;55437;55.046;38.838;2023-02-17T05:51:47;100786.31;;;-1.71;58.90
68456;BME280;55437;55.046;38.838;2023-02-17T05:54:12;100783.44;;;-1.55;58.48
68456;BME280;55437;55.046;38.838;2023-02-17T05:56:38;100783.78;;;-1.45;58.19
68456;BME280;55437;55.046;38.838;2023-02-17T05:59:05;100780.84;;;-1.31;58.01
68456;BME280;55437;55.046;38.838;2023-02-17T06:01:31;100780.13;;;-1.27;57.70
68456;BME280;55437;55.046;38.838;2023-02-17T06:03:57;100792.59;;;-1.32;57.70
68456;BME280;55437;55.046;38.838;2023-02-17T06:06:22;100783.56;;;-1.25;57.53
68456;BME280;55437;55.046;38.838;2023-02-17T06:08:48;100780.91;;;-1.30;58.11
68456;BME280;55437;55.046;38.838;2023-02-17T06:11:14;100785.88;;;-1.31;57.73
68456;BME280;55437;55.046;38.838;2023-02-17T06:13:40;100787.88;;;-1.48;58.50
68456;BME280;55437;55.046;38.838;2023-02-17T06:16:06;100785.44;;;-1.47;58.23
68456;BME280;55437;55.046;38.838;2023-02-17T06:18:31;100788.81;;;-1.46;58.21
68456;BME280;55437;55.046;38.838;2023-02-17T06:20:58;100778.00;;;-1.42;58.36
68456;BME280;55437;55.046;38.838;2023-02-17T06:23:24;100773.22;;;-1.34;57.94
68456;BME280;55437;55.046;38.838;2023-02-17T06:25:50;100778.94;;;-1.38;58.12
68456;BME280;55437;55.046;38.838;2023-02-17T06:28:17;100780.84;;;-1.31;57.69
68456;BME280;55437;55.046;38.838;2023-02-17T06:30:44;100781.09;;;-1.24;57.92
68456;BME280;55437;55.046;38.838;2023-02-17T06:33:10;100777.28;;;-1.11;57.35
68456;BME280;55437;55.046;38.838;2023-02-17T06:35:37;100783.72;;;-0.92;57.27
68456;BME280;55437;55.046;38.838;2023-02-17T06:38:03;100774.69;;;-0.86;56.87
68456;BME280;55437;55.046;38.838;2023-02-17T06:40:29;100782.69;;;-0.69;56.87
68456;BME280;55437;55.046;38.838;2023-02-17T06:42:54;100773.81;;;-0.56;56.59
68456;BME280;55437;55.046;38.838;2023-02-17T06:45:20;100772.25;;;-0.53;56.29
68456;BME280;55437;55.046;38.838;2023-02-17T06:47:46;100782.19;;;-0.57;56.26
68456;BME280;55437;55.046;38.838;2023-02-17T06:50:12;100784.72;;;-0.57;56.05
68456;BME280;55437;55.046;38.838;2023-02-17T06:52:39;100783.44;;;-0.43;55.99
68456;BME280;55437;55.046;38.838;2023-02-17T06:55:06;100785.84;;;-0.16;55.32
68456;BME280;55437;55.046;38.838;2023-02-17T06:57:32;100783.25;;;0.14;54.80
68456;BME280;55437;55.046;38.838;2023-02-17T06:59:57;100779.59;;;0.37;54.34
68456;BME280;55437;55.046;38.838;2023-02-17T07:02:24;100781.72;;;0.55;53.96
68456;BME280;55437;55.046;38.838;2023-02-17T07:04:50;100779.66;;;0.75;53.37
68456;BME280;55437;55.046;38.838;2023-02-17T07:07:16;100784.41;;;0.98;52.85
68456;BME280;55437;55.046;38.838;2023-02-17T07:09:45;100785.41;;;1.05;52.62
68456;BME280;55437;55.046;38.838;2023-02-17T07:12:11;100775.22;;;0.64;53.23
68456;BME280;55437;55.046;38.838;2023-02-17T07:14:40;100779.41;;;0.28;53.71
68456;BME280;55437;55.046;38.838;2023-02-17T07:17:06;100775.63;;;0.11;53.65
68456;BME280;55437;55.046;38.838;2023-02-17T07:19:31;100777.31;;;0.12;54.07
68456;BME280;55437;55.046;38.838;2023-02-17T07:21:57;100782.50;;;0.18;53.80
68456;BME280;55437;55.046;38.838;2023-02-17T07:24:23;100785.31;;;-0.05;54.23
68456;BME280;55437;55.046;38.838;2023-02-17T07:26:49;100785.59;;;0.06;54.39
68456;BME280;55437;55.046;38.838;2023-02-17T07:29:15;100780.13;;;0.22;53.92
68456;BME280;55437;55.046;38.838;2023-02-17T07:31:40;100779.31;;;0.25;53.47
68456;BME280;55437;55.046;38.838;2023-02-17T07:34:06;100779.41;;;0.28;53.48
68456;BME280;55437;55.046;38.838;2023-02-17T07:36:32;100776.31;;;0.40;53.17
68456;BME280;55437;55.046;38.838;2023-02-17T07:38:58;100778.31;;;0.53;52.86
68456;BME280;55437;55.046;38.838;2023-02-17T07:41:24;100776.22;;;0.71;52.46
68456;BME280;55437;55.046;38.838;2023-02-17T07:43:55;100776.69;;;0.92;51.85
68456;BME280;55437;55.046;38.838;2023-02-17T07:46:22;100778.06;;;0.78;52.10
68456;BME280;55437;55.046;38.838;2023-02-17T07:48:47;100775.28;;;0.67;51.96
68456;BME280;55437;55.046;38.838;2023-02-17T07:51:19;100782.13;;;0.35;52.69
68456;BME280;55437;55.046;38.838;2023-02-17T07:53:47;100777.31;;;0.46;52.76
68456;BME280;55437;55.046;38.838;2023-02-17T07:56:14;100767.44;;;0.55;52.28
68456;BME280;55437;55.046;38.838;2023-02-17T07:58:42;100780.72;;;0.47;52.60
68456;BME280;55437;55.046;38.838;2023-02-17T08:01:19;100773.16;;;0.48;52.38
68456;BME280;55437;55.046;38.838;2023-02-17T08:03:46;100771.66;;;0.56;52.33
68456;BME280;55437;55.046;38.838;2023-02-17T08:06:21;100773.50;;;0.63;51.87
68456;BME280;55437;55.046;38.838;2023-02-17T08:09:06;100770.69;;;0.87;51.56
68456;BME280;55437;55.046;38.838;2023-02-17T08:11:50;100774.84;;;1.24;51.01
68456;BME280;55437;55.046;38.838;2023-02-17T08:14:35;100775.16;;;1.39;50.36
68456;BME280;55437;55.046;38.838;2023-02-17T08:17:03;100764.91;;;1.33;50.54
68456;BME280;55437;55.046;38.838;2023-02-17T08:19:32;100772.34;;;1.26;50.80
68456;BME280;55437;55.046;38.838;2023-02-17T08:21:59;100776.44;;;1.19;50.83
68456;BME280;55437;55.046;38.838;2023-02-17T08:24:25;100760.69;;;1.34;50.74
68456;BME280;55437;55.046;38.838;2023-02-17T08:26:51;100768.50;;;1.43;50.30
68456;BME280;55437;55.046;38.838;2023-02-17T08:29:17;100769.34;;;1.43;50.35
68456;BME280;55437;55.046;38.838;2023-02-17T08:31:45;100760.81;;;1.38;50.47
68456;BME280;55437;55.046;38.838;2023-02-17T08:34:12;100766.09;;;1.10;50.96
68456;BME280;55437;55.046;38.838;2023-02-17T08:36:41;100758.88;;;1.27;50.71
68456;BME280;55437;55.046;38.838;2023-02-17T08:39:16;100761.88;;;1.07;50.75
68456;BME280;55437;55.046;38.838;2023-02-17T08:41:43;100759.66;;;0.85;51.09
68456;BME280;55437;55.046;38.838;2023-02-17T08:44:14;100764.03;;;0.91;50.82
68456;BME280;55437;55.046;38.838;2023-02-17T08:46:42;100758.88;;;0.88;51.15
68456;BME280;55437;55.046;38.838;2023-02-17T08:49:09;100763.06;;;0.84;51.35
68456;BME280;55437;55.046;38.838;2023-02-17T08:51:36;100758.19;;;0.56;51.85
68456;BME280;55437;55.046;38.838;2023-02-17T08:54:03;100749.88;;;0.61;51.52
68456;BME280;55437;55.046;38.838;2023-02-17T08:56:29;100754.91;;;0.60;51.57
68456;BME280;55437;55.046;38.838;2023-02-17T08:58:55;100754.06;;;0.59;51.31
68456;BME280;55437;55.046;38.838;2023-02-17T09:01:21;100748.78;;;0.50;51.69
68456;BME280;55437;55.046;38.838;2023-02-17T09:03:49;100747.75;;;0.42;51.47
68456;BME280;55437;55.046;38.838;2023-02-17T09:06:15;100750.34;;;0.45;51.67
68456;BME280;55437;55.046;38.838;2023-02-17T09:08:42;100743.78;;;0.17;51.84
68456;BME280;55437;55.046;38.838;2023-02-17T09:11:09;100736.69;;;0.03;52.35
68456;BME280;55437;55.046;38.838;2023-02-17T09:13:36;100735.09;;;0.06;51.80
68456;BME280;55437;55.046;38.838;2023-02-17T09:16:02;100732.94;;;0.21;51.73
68456;BME280;55437;55.046;38.838;2023-02-17T09:18:29;100730.84;;;0.40;51.37
68456;BME280;55437;55.046;38.838;2023-02-17T09:20:54;100731.97;;;0.52;51.05
68456;BME280;55437;55.046;38.838;2023-02-17T09:23:22;100726.81;;;0.46;50.89
68456;BME280;55437;55.046;38.838;2023-02-17T09:25:48;100725.75;;;0.38;51.32
68456;BME280;55437;55.046;38.838;2023-02-17T09:28:14;100723.81;;;0.64;50.69
68456;BME280;55437;55.046;38.838;2023-02-17T09:30:41;100720.31;;;0.57;50.59
68456;BME280;55437;55.046;38.838;2023-02-17T09:33:06;100723.59;;;0.53;50.40
68456;BME280;55437;55.046;38.838;2023-02-17T09:35:32;100716.56;;;0.42;50.29
68456;BME280;55437;55.046;38.838;2023-02-17T09:37:58;100722.53;;;0.44;50.52
68456;BME280;55437;55.046;38.838;2023-02-17T09:40:48;100719.19;;;0.45;50.32
68456;BME280;55437;55.046;38.838;2023-02-17T09:43:34;100720.34;;;0.59;50.03
68456;BME280;55437;55.046;38.838;2023-02-17T09:46:11;100717.78;;;0.57;50.03
68456;BME280;55437;55.046;38.838;2023-02-17T09:48:39;100716.00;;;0.53;50.10
68456;BME280;55437;55.046;38.838;2023-02-17T09:51:34;100716.78;;;0.51;50.33
68456;BME280;55437;55.046;38.838;2023-02-17T09:56:37;100714.91;;;0.42;50.51
68456;BME280;55437;55.046;38.838;2023-02-17T09:59:19;100714.22;;;0.48;50.57
68456;BME280;55437;55.046;38.838;2023-02-17T10:01:47;100713.84;;;0.32;50.41
68456;BME280;55437;55.046;38.838;2023-02-17T10:04:19;100712.09;;;0.30;50.39
68456;BME280;55437;55.046;38.838;2023-02-17T10:06:50;100708.69;;;0.28;50.42
68456;BME280;55437;55.046;38.838;2023-02-17T10:09:31;100713.16;;;0.40;50.16
68456;BME280;55437;55.046;38.838;2023-02-17T10:12:08;100703.13;;;0.43;50.09
68456;BME280;55437;55.046;38.838;2023-02-17T10:14:52;100713.34;;;0.47;49.89
68456;BME280;55437;55.046;38.838;2023-02-17T10:19:52;100697.63;;;0.59;49.96
68456;BME280;55437;55.046;38.838;2023-02-17T10:22:21;100705.53;;;0.76;49.54
68456;BME280;55437;55.046;38.838;2023-02-17T10:24:48;100711.06;;;0.98;49.23
68456;BME280;55437;55.046;38.838;2023-02-17T10:27:23;100705.38;;;1.07;48.66
68456;BME280;55437;55.046;38.838;2023-02-17T10:33:20;100700.88;;;0.94;48.87
68456;BME280;55437;55.046;38.838;2023-02-17T10:35:54;100686.44;;;0.88;49.06
68456;BME280;55437;55.046;38.838;2023-02-17T10:41:39;100681.81;;;0.69;49.74
68456;BME280;55437;55.046;38.838;2023-02-17T10:44:10;100685.94;;;0.65;49.69
68456;BME280;55437;55.046;38.838;2023-02-17T10:46:39;100675.03;;;0.66;49.62
68456;BME280;55437;55.046;38.838;2023-02-17T10:49:25;100686.13;;;0.75;49.48
68456;BME280;55437;55.046;38.838;2023-02-17T10:51:51;100684.81;;;0.92;49.44
68456;BME280;55437;55.046;38.838;2023-02-17T10:54:28;100680.44;;;0.83;49.17
68456;BME280;55437;55.046;38.838;2023-02-17T10:56:56;100675.38;;;0.83;49.45
68456;BME280;55437;55.046;38.838;2023-02-17T10:59:32;100672.97;;;0.89;49.30
68456;BME280;55437;55.046;38.838;2023-02-17T11:04:46;100678.41;;;0.67;49.88
68456;BME280;55437;55.046;38.838;2023-02-17T11:07:17;100665.81;;;0.68;49.51
68456;BME280;55437;55.046;38.838;2023-02-17T11:09:47;100676.03;;;0.75;49.53
68456;BME280;55437;55.046;38.838;2023-02-17T11:12:40;100676.22;;;0.82;49.43
68456;BME280;55437;55.046;38.838;2023-02-17T11:15:18;100682.25;;;0.90;49.14
68456;BME280;55437;55.046;38.838;2023-02-17T11:17:46;100683.94;;;0.90;49.12
68456;BME280;55437;55.046;38.838;2023-02-17T11:23:19;100682.34;;;0.93;48.86
68456;BME280;55437;55.046;38.838;2023-02-17T11:25:59;100676.41;;;0.93;48.89
68456;BME280;55437;55.046;38.838;2023-02-17T11:28:27;100678.94;;;0.93;49.08
68456;BME280;55437;55.046;38.838;2023-02-17T11:30:58;100667.88;;;0.88;49.10
68456;BME280;55437;55.046;38.838;2023-02-17T11:33:35;100674.72;;;0.92;48.88
68456;BME280;55437;55.046;38.838;2023-02-17T11:36:03;100673.91;;;0.93;49.26
68456;BME280;55437;55.046;38.838;2023-02-17T11:41:06;100671.63;;;1.05;48.96
68456;BME280;55437;55.046;38.838;2023-02-17T11:43:33;100659.94;;;1.12;48.99
68456;BME280;55437;55.046;38.838;2023-02-17T11:57:44;100662.09;;;0.93;49.05
68456;BME280;55437;55.046;38.838;2023-02-17T12:01:02;100657.72;;;0.86;49.08
68456;BME280;55437;55.046;38.838;2023-02-17T12:06:17;100656.47;;;0.66;49.45
68456;BME280;55437;55.046;38.838;2023-02-17T12:09:15;100653.13;;;0.67;49.37
68456;BME280;55437;55.046;38.838;2023-02-17T12:20:36;100642.13;;;0.65;49.86
68456;BME280;55437;55.046;38.838;2023-02-17T12:26:05;100654.69;;;0.62;49.50
68456;BME280;55437;55.046;38.838;2023-02-17T12:31:32;100647.13;;;0.60;49.75
68456;BME280;55437;55.046;38.838;2023-02-17T12:34:42;100643.69;;;0.58;49.97
68456;BME280;55437;55.046;38.838;2023-02-17T12:37:28;100646.78;;;0.45;50.12
68456;BME280;55437;55.046;38.838;2023-02-17T12:40:27;100649.34;;;0.47;49.97
68456;BME280;55437;55.046;38.838;2023-02-17T12:43:24;100644.25;;;0.45;50.28
68456;BME280;55437;55.046;38.838;2023-02-17T12:45:54;100636.44;;;0.34;50.14
68456;BME280;55437;55.046;38.838;2023-02-17T12:48:52;100633.97;;;0.36;50.04
68456;BME280;55437;55.046;38.838;2023-02-17T12:51:31;100636.47;;;0.36;50.17
68456;BME280;55437;55.046;38.838;2023-02-17T12:54:05;100636.47;;;0.38;49.96
68456;BME280;55437;55.046;38.838;2023-02-17T12:59:14;100639.00;;;0.36;50.36
68456;BME280;55437;55.046;38.838;2023-02-17T13:01:47;100644.13;;;0.41;50.18
68456;BME280;55437;55.046;38.838;2023-02-17T13:04:18;100633.97;;;0.38;50.27
68456;BME280;55437;55.046;38.838;2023-02-17T13:07:16;100637.66;;;0.14;50.76
68456;BME280;55437;55.046;38.838;2023-02-17T13:09:44;100631.47;;;0.02;51.11
68456;BME280;55437;55.046;38.838;2023-02-17T13:15:00;100635.50;;;-0.07;51.26
68456;BME280;55437;55.046;38.838;2023-02-17T13:17:32;100636.38;;;-0.05;51.23
68456;BME280;55437;55.046;38.838;2023-02-17T13:22:34;100622.53;;;-0.20;51.62
68456;BME280;55437;55.046;38.838;2023-02-17T13:25:00;100625.75;;;-0.27;51.59
68456;BME280;55437;55.046;38.838;2023-02-17T13:32:46;100642.38;;;-0.34;52.33
68456;BME280;55437;55.046;38.838;2023-02-17T13:37:41;100630.50;;;-0.40;52.20
68456;BME280;55437;55.046;38.838;2023-02-17T13:42:50;100636.22;;;-0.45;52.27
68456;BME280;55437;55.046;38.838;2023-02-17T13:45:25;100641.34;;;-0.42;52.30
68456;BME280;55437;55.046;38.838;2023-02-17T13:47:54;100636.34;;;-0.41;52.32
68456;BME280;55437;55.046;38.838;2023-02-17T13:50:35;100651.22;;;-0.51;52.47
68456;BME280;55437;55.046;38.838;2023-02-17T13:53:28;100634.19;;;-0.58;52.63
68456;BME280;55437;55.046;38.838;2023-02-17T13:55:59;100635.06;;;-0.58;52.49
68456;BME280;55437;55.046;38.838;2023-02-17T13:58:35;100635.91;;;-0.57;52.48
68456;BME280;55437;55.046;38.838;2023-02-17T14:01:03;100631.72;;;-0.57;52.54
68456;BME280;55437;55.046;38.838;2023-02-17T14:03:34;100626.59;;;-0.60;52.73
68456;BME280;55437;55.046;38.838;2023-02-17T14:06:01;100625.72;;;-0.60;52.62
68456;BME280;55437;55.046;38.838;2023-02-17T14:08:41;100624.06;;;-0.61;52.57
68456;BME280;55437;55.046;38.838;2023-02-17T14:11:15;100622.25;;;-0.65;52.93
68456;BME280;55437;55.046;38.838;2023-02-17T14:13:45;100623.03;;;-0.68;52.61
68456;BME280;55437;55.046;38.838;2023-02-17T14:16:31;100626.03;;;-0.81;53.32
68456;BME280;55437;55.046;38.838;2023-02-17T14:21:41;100626.63;;;-0.91;53.38
68456;BME280;55437;55.046;38.838;2023-02-17T14:24:30;100632.41;;;-0.94;53.47
68456;BME280;55437;55.046;38.838;2023-02-17T14:27:05;100632.31;;;-0.98;53.52
68456;BME280;55437;55.046;38.838;2023-02-17T14:29:55;100634.78;;;-1.00;53.38
68456;BME280;55437;55.046;38.838;2023-02-17T14:32:39;100634.72;;;-1.03;53.39
68456;BME280;55437;55.046;38.838;2023-02-17T14:35:20;100633.81;;;-1.05;53.48